Time;durP1;ratioP1;P1;durP2;ratioP2;P2;SDS_P1;SDS_P2;PMS_P1;PMS_P2;Temp;Humidity;BMP_temperature;BMP_pressure;BME280_temperature;BME280_humidity;BME280_pressure;Samples;Min_cycle;Max_cycle;Signal;HPM_P1;HPM_P2
2022/04/24 00:00:24;;;;;;;;;1.00;1.00;20.50;99.90;;;;;;5012040;28;8869;-64
2022/04/24 00:02:59;;;;;;;;;0.50;0.50;20.50;99.90;;;;;;5013184;28;8888;-66
2022/04/24 00:05:30;;;;;;;;;1.50;1.50;20.60;99.90;;;;;;5013503;28;8864;-64
2022/04/24 00:08:01;;;;;;;;;1.25;1.25;20.60;99.90;;;;;;5012337;28;9863;-66
2022/04/24 00:10:31;;;;;;;;;1.25;1.00;20.50;99.90;;;;;;5012554;28;8833;-65
2022/04/24 00:13:04;;;;;;;;;1.00;1.00;20.60;99.90;;;;;;5016486;28;8837;-64
2022/04/24 00:15:33;;;;;;;;;0.50;0.50;20.50;99.90;;;;;;5013556;28;8883;-64
2022/04/24 00:18:07;;;;;;;;;2.00;2.00;20.40;99.90;;;;;;5013540;28;8841;-65
2022/04/24 00:20:37;;;;;;;;;2.00;2.00;20.30;99.90;;;;;;5020566;28;8849;-65
2022/04/24 00:23:08;;;;;;;;;1.25;1.25;20.40;99.90;;;;;;5015362;28;8860;-64
2022/04/24 00:25:38;;;;;;;;;2.25;1.00;20.40;99.90;;;;;;5017767;28;8825;-65
2022/04/24 00:28:08;;;;;;;;;1.25;1.25;20.40;99.90;;;;;;5013612;28;9004;-65
2022/04/24 00:30:39;;;;;;;;;1.00;1.00;20.30;99.90;;;;;;5018399;28;8897;-65
2022/04/24 00:33:09;;;;;;;;;1.50;0.00;20.20;99.90;;;;;;5017216;28;8891;-65
2022/04/24 00:35:41;;;;;;;;;0.50;0.50;20.20;99.90;;;;;;5045424;28;8967;-65
2022/04/24 00:38:11;;;;;;;;;1.75;0.75;20.10;99.90;;;;;;5015922;28;8915;-65
2022/04/24 00:40:45;;;;;;;;;2.00;2.00;20.10;99.90;;;;;;5044606;28;8881;-66
2022/04/24 00:43:15;;;;;;;;;2.33;2.33;20.10;99.90;;;;;;5013333;28;8944;-66
2022/04/24 00:46:40;;;;;;;;;1.00;1.00;20.00;99.90;;;;;;5018329;28;9045;-67
2022/04/24 00:49:12;;;;;;;;;1.00;1.00;20.00;99.90;;;;;;5015227;28;8925;-66
2022/04/24 00:51:43;;;;;;;;;2.00;1.00;20.00;99.90;;;;;;5016979;28;9001;-65
2022/04/24 00:54:14;;;;;;;;;1.67;1.67;19.90;99.90;;;;;;5016079;28;9025;-66
2022/04/24 00:56:45;;;;;;;;;1.50;1.50;19.90;99.90;;;;;;5007315;28;9050;-65
2022/04/24 00:59:18;;;;;;;;;1.00;0.25;19.80;99.90;;;;;;5046762;28;8880;-65
2022/04/24 01:01:48;;;;;;;;;1.25;1.00;19.80;99.90;;;;;;5016896;28;8833;-65
2022/04/24 01:04:20;;;;;;;;;2.33;0.33;19.80;99.90;;;;;;5024334;28;8873;-65
2022/04/24 01:06:50;;;;;;;;;1.00;1.00;19.70;99.90;;;;;;5021351;28;9003;-65
2022/04/24 01:09:23;;;;;;;;;1.67;1.67;19.70;99.90;;;;;;5016830;28;8912;-65
2022/04/24 01:11:56;;;;;;;;;3.00;1.00;19.60;99.90;;;;;;5016738;28;9289;-65
2022/04/24 01:14:31;;;;;;;;;2.00;1.67;19.60;99.90;;;;;;5014142;28;9217;-65
2022/04/24 01:17:03;;;;;;;;;2.00;1.00;19.60;99.90;;;;;;5010412;28;8936;-65
2022/04/24 01:19:34;;;;;;;;;1.33;1.33;19.60;99.90;;;;;;5014913;28;9230;-65
2022/04/24 01:22:04;;;;;;;;;0.00;0.00;19.60;99.90;;;;;;5011941;28;9246;-64
2022/04/24 01:24:34;;;;;;;;;1.00;1.00;19.60;99.90;;;;;;5015994;28;9011;-65
2022/04/24 01:27:05;;;;;;;;;4.00;1.00;19.50;99.90;;;;;;5012957;28;9280;-65
2022/04/24 01:29:35;;;;;;;;;1.00;1.00;19.50;99.90;;;;;;5015416;28;9309;-64
2022/04/24 01:32:06;;;;;;;;;2.00;2.00;19.40;99.90;;;;;;5013452;28;9187;-64
2022/04/24 01:34:37;;;;;;;;;1.00;1.00;19.30;99.90;;;;;;5016382;28;9506;-64
2022/04/24 01:37:08;;;;;;;;;1.33;1.33;19.40;99.90;;;;;;5010155;28;9325;-65
2022/04/24 01:39:38;;;;;;;;;1.67;1.67;19.30;99.90;;;;;;5013801;28;9388;-64
2022/04/24 01:42:08;;;;;;;;;1.00;1.00;19.30;99.90;;;;;;5045731;28;9005;-64
2022/04/24 01:44:39;;;;;;;;;2.00;2.00;19.30;99.90;;;;;;5049482;28;9425;-64
2022/04/24 01:47:10;;;;;;;;;2.00;2.00;19.20;99.90;;;;;;5018038;28;9337;-65
2022/04/24 01:49:40;;;;;;;;;2.00;0.33;19.20;99.90;;;;;;5012217;28;9459;-65
2022/04/24 01:52:12;;;;;;;;;2.00;2.00;19.20;99.90;;;;;;5013686;28;9441;-65
2022/04/24 01:54:43;;;;;;;;;0.00;0.00;19.20;99.90;;;;;;5019923;28;9392;-64
2022/04/24 01:57:13;;;;;;;;;2.00;2.00;19.10;99.90;;;;;;5026337;28;9329;-64
2022/04/24 01:59:44;;;;;;;;;0.00;0.00;19.00;99.90;;;;;;5051971;28;9467;-63
2022/04/24 02:02:14;;;;;;;;;1.00;1.00;19.00;99.90;;;;;;5020023;28;9488;-63
2022/04/24 02:04:45;;;;;;;;;2.00;2.00;18.90;99.90;;;;;;5018368;28;9390;-62
2022/04/24 02:07:15;;;;;;;;;0.00;0.00;18.80;99.90;;;;;;5050147;28;9713;-64
2022/04/24 02:09:47;;;;;;;;;1.00;1.00;18.80;99.90;;;;;;5015424;28;9652;-63
2022/04/24 02:12:18;;;;;;;;;2.25;2.25;18.80;99.90;;;;;;5016281;28;9616;-62
2022/04/24 02:14:50;;;;;;;;;0.75;0.75;18.70;99.90;;;;;;5018543;28;10519;-63
2022/04/24 02:17:21;;;;;;;;;3.25;1.00;18.80;99.90;;;;;;5018076;28;9736;-64
2022/04/24 02:19:52;;;;;;;;;0.50;0.50;18.80;99.90;;;;;;5023791;28;9881;-64
2022/04/24 02:22:25;;;;;;;;;1.00;1.00;18.80;99.90;;;;;;5017794;28;9742;-64
2022/04/24 02:24:55;;;;;;;;;1.00;1.00;18.80;99.90;;;;;;5018825;28;9862;-64
2022/04/24 02:27:24;;;;;;;;;1.00;1.00;18.70;99.90;;;;;;5015905;28;9764;-64
2022/04/24 02:29:55;;;;;;;;;0.50;0.50;18.70;99.90;;;;;;5013093;28;10128;-65
2022/04/24 02:32:26;;;;;;;;;1.50;0.00;18.60;99.90;;;;;;5045185;28;9846;-64
2022/04/24 02:34:58;;;;;;;;;3.75;1.00;18.60;99.90;;;;;;5019803;28;10024;-64
2022/04/24 02:37:32;;;;;;;;;2.75;1.75;18.60;99.90;;;;;;5017729;28;10254;-64
2022/04/24 02:40:09;;;;;;;;;1.00;1.00;18.60;99.90;;;;;;5011979;28;10362;-64
2022/04/24 02:42:40;;;;;;;;;2.00;2.00;18.60;99.90;;;;;;5015963;28;10206;-64
2022/04/24 02:45:11;;;;;;;;;1.25;1.25;18.50;99.90;;;;;;5048845;28;11491;-64
2022/04/24 02:47:42;;;;;;;;;2.25;2.25;18.40;99.90;;;;;;5016399;28;10540;-65
2022/04/24 02:50:14;;;;;;;;;2.50;2.00;18.40;99.90;;;;;;5020489;28;10468;-66
2022/04/24 02:52:49;;;;;;;;;2.00;2.00;18.30;99.90;;;;;;5016304;28;10477;-66
2022/04/24 02:55:21;;;;;;;;;2.00;2.00;18.30;99.90;;;;;;5019870;28;10455;-65
2022/04/24 02:57:54;;;;;;;;;3.00;1.75;18.20;99.90;;;;;;5016381;28;10293;-65
2022/04/24 03:00:27;;;;;;;;;1.00;1.00;18.20;99.90;;;;;;5016855;28;10419;-65
2022/04/24 03:02:59;;;;;;;;;2.25;2.00;18.10;99.90;;;;;;5045484;28;10450;-65
2022/04/24 03:05:29;;;;;;;;;0.75;0.75;18.00;99.90;;;;;;5023259;28;10221;-66
2022/04/24 03:08:00;;;;;;;;;3.25;3.25;18.00;99.90;;;;;;5016999;28;10229;-66
2022/04/24 03:10:32;;;;;;;;;0.50;0.50;17.90;99.90;;;;;;5016077;28;10315;-64
2022/04/24 03:13:04;;;;;;;;;0.25;0.25;18.00;99.90;;;;;;5017948;28;10139;-65
2022/04/24 03:15:37;;;;;;;;;1.00;1.00;18.00;99.90;;;;;;5053330;28;9846;-64
2022/04/24 03:18:08;;;;;;;;;0.00;0.00;18.00;99.90;;;;;;5018418;28;10757;-66
2022/04/24 03:20:38;;;;;;;;;0.00;0.00;18.00;99.90;;;;;;5020815;28;9872;-65
2022/04/24 03:23:10;;;;;;;;;2.25;0.25;18.00;99.90;;;;;;5017344;28;10274;-65
2022/04/24 03:25:42;;;;;;;;;4.00;1.50;17.90;99.90;;;;;;5017413;28;10206;-64
2022/04/24 03:28:12;;;;;;;;;1.75;1.75;18.00;99.90;;;;;;5047700;28;10264;-67
2022/04/24 03:30:45;;;;;;;;;2.25;1.00;17.90;99.90;;;;;;5015198;28;10810;-66
2022/04/24 03:33:13;;;;;;;;;1.00;1.00;17.90;99.90;;;;;;5034635;28;10010;-65
2022/04/24 03:35:44;;;;;;;;;1.00;1.00;17.80;99.90;;;;;;5015862;28;10234;-64
2022/04/24 03:38:15;;;;;;;;;0.75;0.50;17.80;99.90;;;;;;5050171;28;10508;-64
2022/04/24 03:40:45;;;;;;;;;3.50;1.75;17.80;99.90;;;;;;5014502;28;10509;-63
2022/04/24 03:43:15;;;;;;;;;2.00;2.00;17.70;99.90;;;;;;5017082;28;10579;-65
2022/04/24 03:45:45;;;;;;;;;3.00;3.00;17.70;99.90;;;;;;5015248;28;10613;-64
2022/04/24 03:48:16;;;;;;;;;3.25;2.50;17.60;99.90;;;;;;5019360;28;10618;-67
2022/04/24 03:50:46;;;;;;;;;2.25;2.25;17.70;99.90;;;;;;5015841;28;10659;-66
2022/04/24 03:53:18;;;;;;;;;0.75;0.75;17.70;99.90;;;;;;5045932;28;10764;-68
2022/04/24 03:55:50;;;;;;;;;3.00;3.00;17.60;99.90;;;;;;5018232;28;10826;-68
2022/04/24 03:58:21;;;;;;;;;6.25;6.25;17.60;99.90;;;;;;5017614;28;11094;-68
2022/04/24 04:00:51;;;;;;;;;7.25;7.25;17.50;99.90;;;;;;5013988;28;11310;-69
2022/04/24 04:03:22;;;;;;;;;8.50;8.50;17.60;99.90;;;;;;5017168;28;11247;-67
2022/04/24 04:05:52;;;;;;;;;8.75;8.75;17.50;99.90;;;;;;5046615;28;11496;-65
2022/04/24 04:08:23;;;;;;;;;11.75;11.75;17.50;99.90;;;;;;5017230;28;11476;-66
2022/04/24 04:10:54;;;;;;;;;10.50;9.50;17.50;99.90;;;;;;5015752;28;11484;-66
2022/04/24 04:13:25;;;;;;;;;11.75;11.75;17.40;99.90;;;;;;5016264;28;12206;-68
2022/04/24 04:15:56;;;;;;;;;15.00;14.25;17.40;99.90;;;;;;5019923;28;11460;-67
2022/04/24 04:18:26;;;;;;;;;13.25;13.25;17.30;99.90;;;;;;5019629;28;11874;-69
2022/04/24 04:20:57;;;;;;;;;15.25;15.25;17.20;99.90;;;;;;5013465;28;11458;-67
2022/04/24 04:23:28;;;;;;;;;26.25;26.25;17.20;99.90;;;;;;5018117;28;11438;-67
2022/04/24 04:26:00;;;;;;;;;28.75;28.50;17.20;99.90;;;;;;5042972;28;11633;-67
2022/04/24 04:28:31;;;;;;;;;29.00;28.75;17.20;99.90;;;;;;5012770;28;11571;-66
2022/04/24 04:31:03;;;;;;;;;32.50;31.00;17.20;99.90;;;;;;5017685;28;11592;-66
2022/04/24 04:33:35;;;;;;;;;30.50;29.00;17.10;99.90;;;;;;5028159;28;11575;-66
2022/04/24 04:36:07;;;;;;;;;24.50;24.50;17.10;99.90;;;;;;5014917;28;11757;-66
2022/04/24 04:38:37;;;;;;;;;24.00;24.00;17.10;99.90;;;;;;5020173;28;11551;-65
2022/04/24 04:41:08;;;;;;;;;24.50;24.50;17.10;99.90;;;;;;5017232;28;12350;-65
2022/04/24 04:43:38;;;;;;;;;20.00;18.50;17.00;99.90;;;;;;5014663;28;11531;-65
2022/04/24 04:46:08;;;;;;;;;14.00;14.00;16.90;99.90;;;;;;5049633;28;11679;-66
2022/04/24 04:48:39;;;;;;;;;12.75;12.75;16.90;99.90;;;;;;5016284;28;11508;-68
2022/04/24 04:51:11;;;;;;;;;13.00;13.00;16.90;99.90;;;;;;5017534;28;11557;-67
2022/04/24 04:53:42;;;;;;;;;14.00;14.00;16.90;99.90;;;;;;5027258;28;11140;-66
2022/04/24 04:56:12;;;;;;;;;13.25;13.25;16.90;99.90;;;;;;5017418;28;11067;-66
2022/04/24 04:58:44;;;;;;;;;10.00;10.00;16.90;99.90;;;;;;5043695;28;10946;-66
2022/04/24 05:01:16;;;;;;;;;11.00;10.50;16.80;99.90;;;;;;5016962;28;11060;-67
2022/04/24 05:03:46;;;;;;;;;6.50;6.25;16.80;99.90;;;;;;5015354;28;11119;-67
2022/04/24 05:06:18;;;;;;;;;3.75;3.75;16.80;99.90;;;;;;5048937;28;10888;-67
2022/04/24 05:08:47;;;;;;;;;1.25;1.00;16.70;99.90;;;;;;5014762;28;10818;-65
2022/04/24 05:11:17;;;;;;;;;2.50;2.50;16.70;99.90;;;;;;5014501;28;10823;-65
2022/04/24 05:13:47;;;;;;;;;3.00;3.00;16.70;99.90;;;;;;5017782;28;10464;-67
2022/04/24 05:16:18;;;;;;;;;1.00;1.00;16.70;99.90;;;;;;5016992;28;10598;-67
2022/04/24 05:18:49;;;;;;;;;1.25;1.25;16.60;99.90;;;;;;5015972;28;10457;-66
2022/04/24 05:21:19;;;;;;;;;3.50;2.25;16.60;99.90;;;;;;5019745;28;10367;-67
2022/04/24 05:23:49;;;;;;;;;3.00;3.00;16.60;99.90;;;;;;5016348;28;10509;-67
2022/04/24 05:26:21;;;;;;;;;2.00;2.00;16.60;99.90;;;;;;5012955;28;10529;-69
2022/04/24 05:28:52;;;;;;;;;2.00;2.00;16.60;99.90;;;;;;5015835;28;10598;-66
2022/04/24 05:31:22;;;;;;;;;2.75;2.75;16.60;99.90;;;;;;5016835;28;10537;-68
2022/04/24 05:33:55;;;;;;;;;4.50;3.00;16.60;99.90;;;;;;5017026;28;10621;-69
2022/04/24 05:36:25;;;;;;;;;6.00;3.25;16.50;99.90;;;;;;5012710;28;11374;-70
2022/04/24 05:38:55;;;;;;;;;3.50;3.50;16.50;99.90;;;;;;5015516;28;10699;-68
2022/04/24 05:41:25;;;;;;;;;5.50;4.75;16.50;99.90;;;;;;5011642;28;10653;-67
2022/04/24 05:43:55;;;;;;;;;3.25;3.25;16.50;99.90;;;;;;5017267;28;10624;-66
2022/04/24 05:46:27;;;;;;;;;5.50;3.75;16.40;99.90;;;;;;5016378;28;10539;-69
2022/04/24 05:49:00;;;;;;;;;3.75;3.75;16.40;99.90;;;;;;5016714;28;10578;-65
2022/04/24 05:51:30;;;;;;;;;2.00;2.00;16.40;99.90;;;;;;5014392;28;10533;-64
2022/04/24 05:54:01;;;;;;;;;2.25;2.25;16.40;99.90;;;;;;5017556;28;10610;-68
2022/04/24 05:56:32;;;;;;;;;2.50;2.00;16.30;99.90;;;;;;5046339;28;10630;-69
2022/04/24 05:59:04;;;;;;;;;4.00;4.00;16.30;99.90;;;;;;5013976;28;10796;-68
2022/04/24 06:01:35;;;;;;;;;4.00;2.50;16.30;99.90;;;;;;5016259;28;10597;-69
2022/04/24 06:04:07;;;;;;;;;4.25;4.00;16.30;99.90;;;;;;5030914;28;10582;-68
2022/04/24 06:06:38;;;;;;;;;1.25;1.00;16.30;99.90;;;;;;5014146;28;10856;-69
2022/04/24 06:09:10;;;;;;;;;3.00;3.00;16.20;99.90;;;;;;5018440;28;10631;-68
2022/04/24 06:11:43;;;;;;;;;3.25;3.25;16.20;99.90;;;;;;5010493;28;10754;-67
2022/04/24 06:14:14;;;;;;;;;2.00;2.00;16.20;99.90;;;;;;5044372;28;10581;-69
2022/04/24 06:16:45;;;;;;;;;3.00;3.00;16.20;99.90;;;;;;4999103;28;11306;-70
2022/04/24 06:19:18;;;;;;;;;2.00;2.00;16.20;99.90;;;;;;5045501;28;11694;-68
2022/04/24 06:21:49;;;;;;;;;4.00;3.00;16.20;99.90;;;;;;5015858;28;10819;-69
2022/04/24 06:24:19;;;;;;;;;2.25;2.25;16.10;99.90;;;;;;5017221;28;10669;-68
2022/04/24 06:26:50;;;;;;;;;1.00;1.00;16.10;99.90;;;;;;5013148;28;10777;-68
2022/04/24 06:29:27;;;;;;;;;2.50;2.50;16.10;99.90;;;;;;5015102;28;10909;-68
2022/04/24 06:31:58;;;;;;;;;3.00;3.00;16.10;99.90;;;;;;5016231;28;10648;-69
2022/04/24 06:34:30;;;;;;;;;2.00;2.00;16.10;99.90;;;;;;5014955;28;10787;-68
2022/04/24 06:37:00;;;;;;;;;2.25;2.25;16.00;99.90;;;;;;5049410;28;11073;-68
2022/04/24 06:39:32;;;;;;;;;1.75;1.75;16.00;99.90;;;;;;5019858;28;10998;-68
2022/04/24 06:42:01;;;;;;;;;2.00;2.00;15.90;99.90;;;;;;5046432;28;10563;-68
2022/04/24 06:44:36;;;;;;;;;3.25;3.00;16.00;99.90;;;;;;5018215;28;10851;-68
2022/04/24 06:47:07;;;;;;;;;3.25;2.25;16.00;99.90;;;;;;5019442;28;10900;-66
2022/04/24 06:49:39;;;;;;;;;2.00;2.00;16.00;99.90;;;;;;5020754;28;10959;-69
2022/04/24 06:52:10;;;;;;;;;3.75;3.75;15.90;99.90;;;;;;5014192;28;10765;-68
2022/04/24 06:54:40;;;;;;;;;2.50;2.00;15.90;99.90;;;;;;5051377;28;10802;-68
2022/04/24 06:57:11;;;;;;;;;4.00;4.00;15.80;99.90;;;;;;5019750;28;10819;-69
2022/04/24 06:59:41;;;;;;;;;2.75;2.00;15.80;99.90;;;;;;5016180;28;10877;-69
2022/04/24 07:02:12;;;;;;;;;3.50;3.50;15.80;99.90;;;;;;5019723;28;10788;-69
2022/04/24 07:04:43;;;;;;;;;5.00;3.50;15.80;99.90;;;;;;5015675;28;11281;-68
2022/04/24 07:07:13;;;;;;;;;2.00;2.00;15.70;99.90;;;;;;5014960;28;11024;-68
2022/04/24 07:09:45;;;;;;;;;4.25;3.00;15.70;99.90;;;;;;5047113;28;11290;-68
2022/04/24 07:12:16;;;;;;;;;4.75;4.75;15.70;99.90;;;;;;5013733;28;10990;-69
2022/04/24 07:14:46;;;;;;;;;4.75;3.00;15.70;99.90;;;;;;5050195;28;10971;-68
2022/04/24 07:17:19;;;;;;;;;3.00;3.00;15.70;99.90;;;;;;5020956;28;10938;-68
2022/04/24 07:19:49;;;;;;;;;2.75;2.75;15.60;99.90;;;;;;5016604;28;11091;-67
2022/04/24 07:22:20;;;;;;;;;2.50;2.50;15.60;99.90;;;;;;5019812;28;11099;-68
2022/04/24 07:24:50;;;;;;;;;3.00;3.00;15.60;99.90;;;;;;5019324;28;11120;-67
2022/04/24 07:27:20;;;;;;;;;3.00;3.00;15.60;99.90;;;;;;5016190;28;10970;-68
2022/04/24 07:29:51;;;;;;;;;2.75;2.75;15.60;99.90;;;;;;5019351;28;10951;-68
2022/04/24 07:32:22;;;;;;;;;2.00;2.00;15.50;99.90;;;;;;5019684;28;10879;-68
2022/04/24 07:34:52;;;;;;;;;2.75;2.00;15.50;99.90;;;;;;5028018;28;12456;-68
2022/04/24 07:37:22;;;;;;;;;3.75;2.75;15.50;99.90;;;;;;5049977;28;10996;-68
2022/04/24 07:39:53;;;;;;;;;3.00;3.00;15.50;99.90;;;;;;5019667;28;11268;-68
2022/04/24 07:42:24;;;;;;;;;2.75;1.75;15.40;99.90;;;;;;5046271;28;10970;-68
2022/04/24 07:44:56;;;;;;;;;2.50;2.50;15.40;99.90;;;;;;5050940;28;10952;-68
2022/04/24 07:47:27;;;;;;;;;3.75;3.75;15.40;99.90;;;;;;5049408;28;10891;-68
2022/04/24 07:49:57;;;;;;;;;3.00;3.00;15.30;99.90;;;;;;5048295;28;11084;-68
2022/04/24 07:52:28;;;;;;;;;3.00;3.00;15.30;99.90;;;;;;5017974;28;11201;-68
2022/04/24 07:54:59;;;;;;;;;3.50;3.50;15.30;99.90;;;;;;5023627;28;11888;-68
2022/04/24 07:57:31;;;;;;;;;2.25;2.00;15.30;99.90;;;;;;5017776;28;11205;-68
2022/04/24 08:00:01;;;;;;;;;5.50;2.00;15.20;99.90;;;;;;5014624;28;11456;-69
2022/04/24 08:02:56;;;;;;;;;5.00;3.00;15.20;99.90;;;;;;5023720;28;11170;-69
2022/04/24 08:05:29;;;;;;;;;5.00;3.00;15.20;99.90;;;;;;5015789;28;11227;-69
2022/04/24 08:08:10;;;;;;;;;4.25;4.00;15.10;99.90;;;;;;5018128;28;11433;-69
2022/04/24 08:10:44;;;;;;;;;4.50;3.00;15.10;99.90;;;;;;5015704;28;11453;-69
2022/04/24 08:13:17;;;;;;;;;3.00;3.00;15.10;99.90;;;;;;5014443;28;11473;-69
2022/04/24 08:15:50;;;;;;;;;5.25;4.00;15.10;99.90;;;;;;5013904;28;11484;-69
2022/04/24 08:18:21;;;;;;;;;5.00;5.00;15.00;99.90;;;;;;5018357;28;12251;-69
2022/04/24 08:20:51;;;;;;;;;3.00;3.00;15.00;99.90;;;;;;5029594;28;11239;-69
2022/04/24 08:23:25;;;;;;;;;2.50;2.50;15.00;99.90;;;;;;5020434;28;11452;-70
2022/04/24 08:25:56;;;;;;;;;4.75;4.75;14.90;99.90;;;;;;5047767;28;11465;-69
2022/04/24 08:28:26;;;;;;;;;4.50;4.50;14.90;99.90;;;;;;5018937;28;11469;-69
2022/04/24 08:30:57;;;;;;;;;4.50;4.50;14.90;99.90;;;;;;5016831;28;11058;-69
2022/04/24 08:33:28;;;;;;;;;4.25;4.25;14.90;99.90;;;;;;5049445;28;11459;-68
2022/04/24 08:35:59;;;;;;;;;4.00;3.25;14.80;99.90;;;;;;5045842;28;11587;-68
2022/04/24 08:38:29;;;;;;;;;4.75;4.75;14.80;99.90;;;;;;5049860;28;12203;-68
2022/04/24 08:41:01;;;;;;;;;4.50;4.50;14.80;99.90;;;;;;5044494;28;11471;-68
2022/04/24 08:43:33;;;;;;;;;2.75;2.75;14.80;99.90;;;;;;5024004;28;11584;-69
2022/04/24 08:46:06;;;;;;;;;5.00;3.75;14.80;99.90;;;;;;5032720;28;11457;-68
2022/04/24 08:48:36;;;;;;;;;3.33;3.33;14.80;99.90;;;;;;5051074;28;11466;-69
2022/04/24 08:51:09;;;;;;;;;3.25;3.25;14.80;99.90;;;;;;5032046;28;11498;-68
2022/04/24 08:53:45;;;;;;;;;2.00;2.00;14.70;99.90;;;;;;5020577;28;11599;-69
2022/04/24 08:56:16;;;;;;;;;3.00;3.00;14.70;99.90;;;;;;5013514;28;11439;-68
2022/04/24 08:58:47;;;;;;;;;4.75;2.25;14.70;99.90;;;;;;5016214;28;11453;-68
2022/04/24 09:01:23;;;;;;;;;4.25;3.25;14.70;99.90;;;;;;5017897;28;11441;-68
2022/04/24 09:03:55;;;;;;;;;2.00;2.00;14.70;99.90;;;;;;5017199;28;11454;-68
2022/04/24 09:06:26;;;;;;;;;3.50;3.50;14.60;99.90;;;;;;5029033;28;11510;-68
2022/04/24 09:09:07;;;;;;;;;2.75;2.75;14.60;99.90;;;;;;5015840;28;11520;-68
2022/04/24 09:11:37;;;;;;;;;1.75;1.75;14.60;99.90;;;;;;5010701;28;11428;-68
2022/04/24 09:14:24;;;;;;;;;2.50;2.50;14.60;99.90;;;;;;5016565;28;11451;-70
2022/04/24 09:16:57;;;;;;;;;0.50;0.50;14.60;99.90;;;;;;5016375;28;11496;-69
2022/04/24 09:19:28;;;;;;;;;5.50;4.75;14.50;99.90;;;;;;5017070;28;11464;-69
2022/04/24 09:22:09;;;;;;;;;4.00;4.00;14.50;99.90;;;;;;5019230;28;11469;-69
2022/04/24 09:25:01;;;;;;;;;4.25;3.00;14.50;99.90;;;;;;5016087;28;11475;-69
2022/04/24 09:27:34;;;;;;;;;3.00;3.00;14.50;99.90;;;;;;5016902;28;11527;-68
2022/04/24 09:30:13;;;;;;;;;5.00;4.00;14.50;99.90;;;;;;5016409;28;11430;-69
2022/04/24 09:32:48;;;;;;;;;4.00;4.00;14.40;99.90;;;;;;5015994;28;11437;-68
2022/04/24 09:35:33;;;;;;;;;3.00;3.00;14.40;99.90;;;;;;5046915;28;11470;-68
2022/04/24 09:38:14;;;;;;;;;4.25;4.25;14.40;99.90;;;;;;5025406;28;12164;-69
2022/04/24 09:40:48;;;;;;;;;5.50;4.00;14.40;99.90;;;;;;5047891;28;12233;-69
2022/04/24 09:43:20;;;;;;;;;4.00;4.00;14.40;99.90;;;;;;5015936;28;11574;-69
2022/04/24 09:45:56;;;;;;;;;6.00;5.00;14.40;99.90;;;;;;5018642;28;11475;-69
2022/04/24 09:48:26;;;;;;;;;4.25;4.25;14.30;99.90;;;;;;5043864;28;11524;-69
2022/04/24 09:50:58;;;;;;;;;4.50;3.00;14.40;99.90;;;;;;5016555;28;11512;-69
2022/04/24 09:53:30;;;;;;;;;4.00;4.00;14.30;99.90;;;;;;5013768;28;11464;-69
2022/04/24 09:56:02;;;;;;;;;3.75;3.75;14.30;99.90;;;;;;5013963;28;11467;-69
2022/04/24 09:58:35;;;;;;;;;4.50;2.25;14.30;99.90;;;;;;5016044;28;11516;-69
2022/04/24 10:01:10;;;;;;;;;2.75;2.75;14.30;99.90;;;;;;5015492;28;11473;-70
2022/04/24 10:03:42;;;;;;;;;4.75;3.00;14.30;99.90;;;;;;5017657;28;12195;-69
2022/04/24 10:06:13;;;;;;;;;4.25;4.25;14.20;99.90;;;;;;5017233;28;11421;-69
2022/04/24 10:08:45;;;;;;;;;5.00;5.00;14.20;99.90;;;;;;5047690;28;11486;-69
2022/04/24 10:11:14;;;;;;;;;6.25;4.00;14.20;99.90;;;;;;5025791;28;11478;-69
2022/04/24 10:13:47;;;;;;;;;6.75;6.00;14.20;99.90;;;;;;5045032;28;11492;-69
2022/04/24 10:16:45;;;;;;;;;3.75;3.75;14.20;99.90;;;;;;5016156;28;11491;-69
2022/04/24 10:19:50;;;;;;;;;3.75;3.75;14.20;99.90;;;;;;5035784;28;11540;-69
2022/04/24 10:22:30;;;;;;;;;7.00;5.25;14.10;99.90;;;;;;5049111;28;12308;-68
2022/04/24 10:25:03;;;;;;;;;5.50;5.00;14.10;99.90;;;;;;5017885;28;11468;-68
2022/04/24 10:27:44;;;;;;;;;4.25;4.00;14.10;99.90;;;;;;5046997;28;11480;-68
2022/04/24 10:30:26;;;;;;;;;4.00;4.00;14.10;99.90;;;;;;5019327;28;12229;-68
2022/04/24 10:33:24;;;;;;;;;5.25;5.25;14.10;99.90;;;;;;5049236;28;11478;-68
2022/04/24 10:35:59;;;;;;;;;4.75;4.75;14.10;99.90;;;;;;5021088;28;11454;-68
2022/04/24 10:38:31;;;;;;;;;3.25;3.25;14.10;99.90;;;;;;5020121;28;11471;-69
2022/04/24 10:41:15;;;;;;;;;5.25;5.25;14.00;99.90;;;;;;5047395;28;11488;-69
2022/04/24 10:43:52;;;;;;;;;3.50;3.50;14.00;99.90;;;;;;5021025;28;11436;-70
2022/04/24 10:46:33;;;;;;;;;7.00;5.00;14.00;99.90;;;;;;5020368;28;11456;-69
2022/04/24 10:49:14;;;;;;;;;6.00;6.00;14.00;99.90;;;;;;5021728;28;11593;-69
2022/04/24 10:51:56;;;;;;;;;4.00;4.00;14.00;99.90;;;;;;5015011;28;11495;-69
2022/04/24 10:54:40;;;;;;;;;6.50;6.50;13.90;99.90;;;;;;5052967;28;12026;-69
2022/04/24 10:57:26;;;;;;;;;8.00;8.00;13.90;99.90;;;;;;5014498;28;11480;-68
2022/04/24 10:59:56;;;;;;;;;8.00;7.50;13.90;99.90;;;;;;5019987;28;11496;-69
2022/04/24 11:02:33;;;;;;;;;6.50;6.50;13.90;99.90;;;;;;5016114;28;11669;-68
2022/04/24 11:05:06;;;;;;;;;7.00;7.00;13.90;99.90;;;;;;5045622;28;11514;-68
2022/04/24 11:07:38;;;;;;;;;8.00;7.50;13.80;99.90;;;;;;5016506;28;11526;-68
2022/04/24 11:10:10;;;;;;;;;7.00;7.00;13.80;99.90;;;;;;5025102;28;11443;-67
2022/04/24 11:12:41;;;;;;;;;9.25;8.25;13.80;99.90;;;;;;5033929;28;11516;-68
2022/04/24 11:15:13;;;;;;;;;8.00;7.75;13.70;99.90;;;;;;5020941;28;11530;-68
2022/04/24 11:17:44;;;;;;;;;9.00;7.50;13.70;99.90;;;;;;5019201;28;12796;-68
2022/04/24 11:20:16;;;;;;;;;4.00;4.00;13.80;99.90;;;;;;5014720;28;11485;-68
2022/04/24 11:22:55;;;;;;;;;6.25;5.75;13.80;99.90;;;;;;5014421;28;11519;-68
2022/04/24 11:25:28;;;;;;;;;6.75;6.00;13.70;99.90;;;;;;5046749;28;11438;-68
2022/04/24 11:27:59;;;;;;;;;6.25;6.25;13.70;99.90;;;;;;5021729;28;11511;-69
2022/04/24 11:30:37;;;;;;;;;7.00;6.25;13.70;99.90;;;;;;5019666;28;11465;-69
2022/04/24 11:33:08;;;;;;;;;5.75;5.75;13.60;99.90;;;;;;5019438;28;11462;-68
2022/04/24 11:35:40;;;;;;;;;2.75;2.75;13.60;99.90;;;;;;5046861;28;11457;-68
2022/04/24 11:38:13;;;;;;;;;6.00;5.25;13.60;99.90;;;;;;5017923;28;12549;-68
2022/04/24 11:40:50;;;;;;;;;4.00;4.00;13.60;99.90;;;;;;5049034;28;11536;-68
2022/04/24 11:43:20;;;;;;;;;4.00;4.00;13.60;99.90;;;;;;5017498;28;11515;-68
2022/04/24 11:51:33;;;;;;;;;5.25;4.00;13.50;99.90;;;;;;5013500;28;11445;-68
2022/04/24 11:54:11;;;;;;;;;3.75;3.25;13.50;99.90;;;;;;5020371;28;11520;-69
2022/04/24 11:56:42;;;;;;;;;3.75;3.75;13.50;99.90;;;;;;5044021;28;11479;-69
2022/04/24 11:59:19;;;;;;;;;5.50;4.50;13.50;99.90;;;;;;5020471;28;11541;-67
2022/04/24 12:02:00;;;;;;;;;5.00;5.00;13.50;99.90;;;;;;5048775;28;12196;-68
2022/04/24 12:04:33;;;;;;;;;5.00;3.00;13.40;99.90;;;;;;5010091;28;11507;-68
2022/04/24 12:07:06;;;;;;;;;3.25;3.25;13.40;99.90;;;;;;5017333;28;11442;-68
2022/04/24 12:09:38;;;;;;;;;6.00;6.00;13.40;99.90;;;;;;5019210;28;11476;-68
2022/04/24 12:12:13;;;;;;;;;4.50;4.00;13.40;99.90;;;;;;5046678;28;11570;-68
2022/04/24 12:14:51;;;;;;;;;3.75;3.75;13.40;99.90;;;;;;5018233;28;12196;-68
2022/04/24 12:17:23;;;;;;;;;4.50;4.00;13.30;99.90;;;;;;5018874;28;11531;-68
2022/04/24 12:19:56;;;;;;;;;3.25;3.25;13.30;99.90;;;;;;5019643;28;11516;-69
2022/04/24 12:22:32;;;;;;;;;5.50;4.25;13.30;99.90;;;;;;5018272;28;11465;-69
2022/04/24 12:25:09;;;;;;;;;5.00;5.00;13.30;99.90;;;;;;5015805;28;11488;-68
2022/04/24 12:27:50;;;;;;;;;5.25;5.25;13.30;99.90;;;;;;5016231;28;13251;-69
2022/04/24 12:30:20;;;;;;;;;4.00;4.00;13.30;99.90;;;;;;5018260;28;11521;-69
2022/04/24 12:32:52;;;;;;;;;4.75;4.75;13.20;99.90;;;;;;5015803;28;12172;-69
2022/04/24 12:35:34;;;;;;;;;7.00;6.25;13.20;99.90;;;;;;5014270;28;11911;-69
2022/04/24 12:38:17;;;;;;;;;5.25;3.75;13.20;99.90;;;;;;5019038;28;11487;-68
2022/04/24 12:40:59;;;;;;;;;3.50;2.75;13.20;99.90;;;;;;5018456;28;11515;-68
2022/04/24 12:43:31;;;;;;;;;6.00;6.00;13.20;99.90;;;;;;5022825;28;11430;-68
2022/04/24 12:46:01;;;;;;;;;4.50;4.50;13.20;99.90;;;;;;5020175;28;11513;-67
2022/04/24 12:48:33;;;;;;;;;5.25;5.25;13.10;99.90;;;;;;5013174;28;12168;-68
2022/04/24 12:51:04;;;;;;;;;5.50;5.50;13.10;99.90;;;;;;5020904;28;11461;-68
2022/04/24 12:53:33;;;;;;;;;7.00;6.75;13.10;99.90;;;;;;5030977;28;11473;-68
2022/04/24 12:56:04;;;;;;;;;4.75;4.75;13.10;99.90;;;;;;5015245;28;11613;-68
2022/04/24 12:58:38;;;;;;;;;4.50;4.50;13.10;99.90;;;;;;5013080;28;11461;-69
2022/04/24 13:01:12;;;;;;;;;5.00;5.00;13.10;99.90;;;;;;5017562;28;11494;-68
2022/04/24 13:03:48;;;;;;;;;6.25;6.25;13.10;99.90;;;;;;5015052;28;11526;-68
2022/04/24 13:06:18;;;;;;;;;5.50;5.00;13.10;99.90;;;;;;5014494;28;11481;-68
2022/04/24 13:08:50;;;;;;;;;8.00;8.00;13.10;99.90;;;;;;5029736;28;11528;-68
2022/04/24 13:11:23;;;;;;;;;6.25;6.25;13.10;99.90;;;;;;5014542;28;11516;-68
2022/04/24 13:13:54;;;;;;;;;6.25;6.00;13.10;99.90;;;;;;5014882;28;11661;-68
2022/04/24 13:19:14;;;;;;;;;8.00;6.00;13.10;99.90;;;;;;5046768;28;11495;-68
2022/04/24 13:21:53;;;;;;;;;5.50;4.00;13.10;99.90;;;;;;5045796;28;11433;-68
2022/04/24 13:24:24;;;;;;;;;4.00;4.00;13.10;99.90;;;;;;5045033;28;11636;-68